sensor_id;sensor_type;location;lat;lon;timestamp;temperature;humidity
79489;SHT31;68949;53.176;18.088;2023-05-07T00:00:35;6.01;82.56
79489;SHT31;68949;53.176;18.088;2023-05-07T00:03:19;5.98;82.63
79489;SHT31;68949;53.176;18.088;2023-05-07T00:05:46;5.93;82.55
79489;SHT31;68949;53.176;18.088;2023-05-07T00:08:13;5.90;82.64
79489;SHT31;68949;53.176;18.088;2023-05-07T00:10:40;5.85;82.60
79489;SHT31;68949;53.176;18.088;2023-05-07T00:13:07;5.80;82.46
79489;SHT31;68949;53.176;18.088;2023-05-07T00:15:34;5.78;82.56
79489;SHT31;68949;53.176;18.088;2023-05-07T00:18:00;5.78;82.60
79489;SHT31;68949;53.176;18.088;2023-05-07T00:20:27;5.76;82.58
79489;SHT31;68949;53.176;18.088;2023-05-07T00:22:54;5.71;82.52
79489;SHT31;68949;53.176;18.088;2023-05-07T00:25:21;5.69;82.51
79489;SHT31;68949;53.176;18.088;2023-05-07T00:27:48;5.60;82.32
79489;SHT31;68949;53.176;18.088;2023-05-07T00:30:15;5.56;82.37
79489;SHT31;68949;53.176;18.088;2023-05-07T00:32:42;5.53;82.53
79489;SHT31;68949;53.176;18.088;2023-05-07T00:35:11;5.51;82.45
79489;SHT31;68949;53.176;18.088;2023-05-07T00:37:38;5.49;82.28
79489;SHT31;68949;53.176;18.088;2023-05-07T00:40:06;5.45;82.42
79489;SHT31;68949;53.176;18.088;2023-05-07T00:42:34;5.42;82.55
79489;SHT31;68949;53.176;18.088;2023-05-07T00:45:01;5.39;82.50
79489;SHT31;68949;53.176;18.088;2023-05-07T00:47:27;5.33;82.49
79489;SHT31;68949;53.176;18.088;2023-05-07T00:49:54;5.24;82.51
79489;SHT31;68949;53.176;18.088;2023-05-07T00:52:23;5.16;82.46
79489;SHT31;68949;53.176;18.088;2023-05-07T00:54:52;5.09;82.57
79489;SHT31;68949;53.176;18.088;2023-05-07T00:57:19;5.03;82.65
79489;SHT31;68949;53.176;18.088;2023-05-07T00:59:48;5.01;82.50
79489;SHT31;68949;53.176;18.088;2023-05-07T01:02:15;4.99;82.35
79489;SHT31;68949;53.176;18.088;2023-05-07T01:04:43;4.94;82.28
79489;SHT31;68949;53.176;18.088;2023-05-07T01:07:10;4.84;82.47
79489;SHT31;68949;53.176;18.088;2023-05-07T01:09:36;4.81;82.39
79489;SHT31;68949;53.176;18.088;2023-05-07T01:12:04;4.80;82.24
79489;SHT31;68949;53.176;18.088;2023-05-07T01:14:32;4.70;82.23
79489;SHT31;68949;53.176;18.088;2023-05-07T01:17:00;4.62;82.33
79489;SHT31;68949;53.176;18.088;2023-05-07T01:19:28;4.58;82.21
79489;SHT31;68949;53.176;18.088;2023-05-07T01:21:59;4.56;82.12
79489;SHT31;68949;53.176;18.088;2023-05-07T01:24:36;4.48;81.96
79489;SHT31;68949;53.176;18.088;2023-05-07T01:27:04;4.28;82.46
79489;SHT31;68949;53.176;18.088;2023-05-07T01:29:32;4.07;83.17
79489;SHT31;68949;53.176;18.088;2023-05-07T01:31:59;3.96;83.46
79489;SHT31;68949;53.176;18.088;2023-05-07T01:34:28;3.96;83.58
79489;SHT31;68949;53.176;18.088;2023-05-07T01:37:00;4.00;83.17
79489;SHT31;68949;53.176;18.088;2023-05-07T01:39:28;4.05;82.88
79489;SHT31;68949;53.176;18.088;2023-05-07T01:41:56;4.06;82.68
79489;SHT31;68949;53.176;18.088;2023-05-07T01:44:25;3.96;82.95
79489;SHT31;68949;53.176;18.088;2023-05-07T01:46:54;3.93;82.88
79489;SHT31;68949;53.176;18.088;2023-05-07T01:49:21;3.89;82.76
79489;SHT31;68949;53.176;18.088;2023-05-07T01:51:48;3.67;83.00
79489;SHT31;68949;53.176;18.088;2023-05-07T01:54:15;3.48;83.48
79489;SHT31;68949;53.176;18.088;2023-05-07T01:56:43;3.35;83.79
79489;SHT31;68949;53.176;18.088;2023-05-07T01:59:10;3.27;83.94
79489;SHT31;68949;53.176;18.088;2023-05-07T02:01:36;3.32;84.64
79489;SHT31;68949;53.176;18.088;2023-05-07T02:04:03;3.45;84.95
79489;SHT31;68949;53.176;18.088;2023-05-07T02:06:30;3.56;84.67
79489;SHT31;68949;53.176;18.088;2023-05-07T02:09:02;3.65;84.76
79489;SHT31;68949;53.176;18.088;2023-05-07T02:11:29;3.71;84.23
79489;SHT31;68949;53.176;18.088;2023-05-07T02:13:56;3.71;83.93
79489;SHT31;68949;53.176;18.088;2023-05-07T02:16:23;3.72;83.92
79489;SHT31;68949;53.176;18.088;2023-05-07T02:18:51;3.73;83.67
79489;SHT31;68949;53.176;18.088;2023-05-07T02:21:18;3.77;83.60
79489;SHT31;68949;53.176;18.088;2023-05-07T02:23:45;3.75;83.71
79489;SHT31;68949;53.176;18.088;2023-05-07T02:26:12;3.61;83.89
79489;SHT31;68949;53.176;18.088;2023-05-07T02:28:39;3.46;84.31
79489;SHT31;68949;53.176;18.088;2023-05-07T02:31:06;3.36;84.70
79489;SHT31;68949;53.176;18.088;2023-05-07T02:33:33;3.39;84.60
79489;SHT31;68949;53.176;18.088;2023-05-07T02:36:05;3.47;84.56
79489;SHT31;68949;53.176;18.088;2023-05-07T02:38:44;3.53;84.40
79489;SHT31;68949;53.176;18.088;2023-05-07T02:41:11;3.40;84.03
79489;SHT31;68949;53.176;18.088;2023-05-07T02:43:38;3.30;84.36
79489;SHT31;68949;53.176;18.088;2023-05-07T02:46:06;3.29;84.06
79489;SHT31;68949;53.176;18.088;2023-05-07T02:48:37;3.22;83.89
79489;SHT31;68949;53.176;18.088;2023-05-07T02:51:04;3.24;83.86
79489;SHT31;68949;53.176;18.088;2023-05-07T02:53:32;3.29;83.65
79489;SHT31;68949;53.176;18.088;2023-05-07T02:56:00;3.34;83.75
79489;SHT31;68949;53.176;18.088;2023-05-07T02:58:28;3.36;83.59
79489;SHT31;68949;53.176;18.088;2023-05-07T03:00:54;3.40;83.41
79489;SHT31;68949;53.176;18.088;2023-05-07T03:03:28;3.38;83.31
79489;SHT31;68949;53.176;18.088;2023-05-07T03:05:55;3.39;83.12
79489;SHT31;68949;53.176;18.088;2023-05-07T03:08:22;3.42;83.04
79489;SHT31;68949;53.176;18.088;2023-05-07T03:10:49;3.46;83.13
79489;SHT31;68949;53.176;18.088;2023-05-07T03:13:16;3.45;82.93
79489;SHT31;68949;53.176;18.088;2023-05-07T03:15:43;3.42;83.12
79489;SHT31;68949;53.176;18.088;2023-05-07T03:18:10;3.41;83.20
79489;SHT31;68949;53.176;18.088;2023-05-07T03:20:36;3.42;83.31
79489;SHT31;68949;53.176;18.088;2023-05-07T03:23:04;3.46;83.53
79489;SHT31;68949;53.176;18.088;2023-05-07T03:25:31;3.50;83.72
79489;SHT31;68949;53.176;18.088;2023-05-07T03:27:58;3.58;83.46
79489;SHT31;68949;53.176;18.088;2023-05-07T03:30:30;3.56;83.26
79489;SHT31;68949;53.176;18.088;2023-05-07T03:32:56;3.62;83.31
79489;SHT31;68949;53.176;18.088;2023-05-07T03:35:23;3.78;83.03
79489;SHT31;68949;53.176;18.088;2023-05-07T03:37:50;4.21;82.70
79489;SHT31;68949;53.176;18.088;2023-05-07T03:40:18;4.70;81.97
79489;SHT31;68949;53.176;18.088;2023-05-07T03:42:48;5.17;81.15
79489;SHT31;68949;53.176;18.088;2023-05-07T03:45:15;5.63;80.24
79489;SHT31;68949;53.176;18.088;2023-05-07T03:47:45;6.01;79.22
79489;SHT31;68949;53.176;18.088;2023-05-07T03:50:13;6.36;78.61
79489;SHT31;68949;53.176;18.088;2023-05-07T03:52:40;6.75;78.06
79489;SHT31;68949;53.176;18.088;2023-05-07T03:55:08;6.99;77.34
79489;SHT31;68949;53.176;18.088;2023-05-07T03:57:35;7.14;76.66
79489;SHT31;68949;53.176;18.088;2023-05-07T04:00:02;7.37;76.26
79489;SHT31;68949;53.176;18.088;2023-05-07T04:02:32;7.71;75.92
79489;SHT31;68949;53.176;18.088;2023-05-07T04:05:00;7.85;75.10
79489;SHT31;68949;53.176;18.088;2023-05-07T04:07:27;8.06;74.92
79489;SHT31;68949;53.176;18.088;2023-05-07T04:09:54;8.19;74.00
79489;SHT31;68949;53.176;18.088;2023-05-07T04:12:21;8.24;74.12
79489;SHT31;68949;53.176;18.088;2023-05-07T04:14:49;8.43;73.67
79489;SHT31;68949;53.176;18.088;2023-05-07T04:17:16;8.74;72.93
79489;SHT31;68949;53.176;18.088;2023-05-07T04:19:46;8.93;71.79
79489;SHT31;68949;53.176;18.088;2023-05-07T04:22:16;9.06;71.59
79489;SHT31;68949;53.176;18.088;2023-05-07T04:24:43;9.11;71.19
79489;SHT31;68949;53.176;18.088;2023-05-07T04:27:12;9.29;71.61
79489;SHT31;68949;53.176;18.088;2023-05-07T04:29:39;9.64;71.04
79489;SHT31;68949;53.176;18.088;2023-05-07T04:32:09;9.67;69.61
79489;SHT31;68949;53.176;18.088;2023-05-07T04:34:37;9.61;70.37
79489;SHT31;68949;53.176;18.088;2023-05-07T04:37:04;9.65;70.36
79489;SHT31;68949;53.176;18.088;2023-05-07T04:39:32;9.84;70.16
79489;SHT31;68949;53.176;18.088;2023-05-07T04:41:59;10.11;70.08
79489;SHT31;68949;53.176;18.088;2023-05-07T04:44:27;10.22;69.02
79489;SHT31;68949;53.176;18.088;2023-05-07T04:46:54;10.09;68.95
79489;SHT31;68949;53.176;18.088;2023-05-07T04:49:21;10.03;68.97
79489;SHT31;68949;53.176;18.088;2023-05-07T04:51:48;10.24;69.52
79489;SHT31;68949;53.176;18.088;2023-05-07T04:54:16;10.48;69.08
79489;SHT31;68949;53.176;18.088;2023-05-07T04:56:44;10.52;68.05
79489;SHT31;68949;53.176;18.088;2023-05-07T04:59:10;10.48;68.02
79489;SHT31;68949;53.176;18.088;2023-05-07T05:01:37;10.48;68.28
79489;SHT31;68949;53.176;18.088;2023-05-07T05:04:04;10.62;67.79
79489;SHT31;68949;53.176;18.088;2023-05-07T05:06:31;10.46;67.52
79489;SHT31;68949;53.176;18.088;2023-05-07T05:09:02;10.47;67.83
79489;SHT31;68949;53.176;18.088;2023-05-07T05:11:42;10.62;67.75
79489;SHT31;68949;53.176;18.088;2023-05-07T05:14:08;10.58;67.01
79489;SHT31;68949;53.176;18.088;2023-05-07T05:16:35;10.42;67.40
79489;SHT31;68949;53.176;18.088;2023-05-07T05:19:02;10.39;68.14
79489;SHT31;68949;53.176;18.088;2023-05-07T05:21:29;10.48;67.84
79489;SHT31;68949;53.176;18.088;2023-05-07T05:23:58;10.84;67.40
79489;SHT31;68949;53.176;18.088;2023-05-07T05:26:25;11.17;67.08
79489;SHT31;68949;53.176;18.088;2023-05-07T05:28:52;11.24;65.70
79489;SHT31;68949;53.176;18.088;2023-05-07T05:31:20;11.39;65.41
79489;SHT31;68949;53.176;18.088;2023-05-07T05:33:48;11.23;64.88
79489;SHT31;68949;53.176;18.088;2023-05-07T05:36:15;11.26;65.17
79489;SHT31;68949;53.176;18.088;2023-05-07T05:38:43;11.44;64.71
79489;SHT31;68949;53.176;18.088;2023-05-07T05:41:11;11.58;64.69
79489;SHT31;68949;53.176;18.088;2023-05-07T05:43:37;11.73;64.59
79489;SHT31;68949;53.176;18.088;2023-05-07T05:46:04;11.93;64.79
79489;SHT31;68949;53.176;18.088;2023-05-07T05:48:31;12.12;64.28
79489;SHT31;68949;53.176;18.088;2023-05-07T05:51:00;12.20;63.72
79489;SHT31;68949;53.176;18.088;2023-05-07T05:53:26;12.34;63.84
79489;SHT31;68949;53.176;18.088;2023-05-07T05:55:54;12.38;60.82
79489;SHT31;68949;53.176;18.088;2023-05-07T05:58:21;12.30;61.40
79489;SHT31;68949;53.176;18.088;2023-05-07T06:00:52;11.91;61.43
79489;SHT31;68949;53.176;18.088;2023-05-07T06:03:20;11.73;62.10
79489;SHT31;68949;53.176;18.088;2023-05-07T06:05:47;11.90;62.80
79489;SHT31;68949;53.176;18.088;2023-05-07T06:08:14;11.98;62.20
79489;SHT31;68949;53.176;18.088;2023-05-07T06:10:42;11.99;62.67
79489;SHT31;68949;53.176;18.088;2023-05-07T06:13:08;12.18;63.21
79489;SHT31;68949;53.176;18.088;2023-05-07T06:15:36;12.40;62.83
79489;SHT31;68949;53.176;18.088;2023-05-07T06:18:07;12.37;61.67
79489;SHT31;68949;53.176;18.088;2023-05-07T06:20:34;12.10;62.12
79489;SHT31;68949;53.176;18.088;2023-05-07T06:23:02;11.93;62.52
79489;SHT31;68949;53.176;18.088;2023-05-07T06:25:30;12.00;63.23
79489;SHT31;68949;53.176;18.088;2023-05-07T06:27:56;12.16;62.71
79489;SHT31;68949;53.176;18.088;2023-05-07T06:30:24;12.19;61.87
79489;SHT31;68949;53.176;18.088;2023-05-07T06:32:53;12.07;61.90
79489;SHT31;68949;53.176;18.088;2023-05-07T06:35:20;11.96;61.89
79489;SHT31;68949;53.176;18.088;2023-05-07T06:37:47;11.79;61.44
79489;SHT31;68949;53.176;18.088;2023-05-07T06:40:18;11.60;62.13
79489;SHT31;68949;53.176;18.088;2023-05-07T06:42:46;11.31;62.07
79489;SHT31;68949;53.176;18.088;2023-05-07T06:45:22;11.12;62.12
79489;SHT31;68949;53.176;18.088;2023-05-07T06:47:49;11.04;61.86
79489;SHT31;68949;53.176;18.088;2023-05-07T06:50:15;10.95;61.78
79489;SHT31;68949;53.176;18.088;2023-05-07T06:52:44;10.87;62.60
79489;SHT31;68949;53.176;18.088;2023-05-07T06:55:11;11.03;62.32
79489;SHT31;68949;53.176;18.088;2023-05-07T06:57:37;11.22;62.09
79489;SHT31;68949;53.176;18.088;2023-05-07T07:00:05;11.44;62.31
79489;SHT31;68949;53.176;18.088;2023-05-07T07:02:41;11.63;61.20
79489;SHT31;68949;53.176;18.088;2023-05-07T07:05:09;11.78;61.10
79489;SHT31;68949;53.176;18.088;2023-05-07T07:07:37;11.84;59.83
79489;SHT31;68949;53.176;18.088;2023-05-07T07:10:05;11.86;59.99
79489;SHT31;68949;53.176;18.088;2023-05-07T07:12:33;11.94;60.04
79489;SHT31;68949;53.176;18.088;2023-05-07T07:14:59;11.93;59.53
79489;SHT31;68949;53.176;18.088;2023-05-07T07:17:27;11.88;57.20
79489;SHT31;68949;53.176;18.088;2023-05-07T07:19:55;11.93;58.80
79489;SHT31;68949;53.176;18.088;2023-05-07T07:22:21;12.03;57.58
79489;SHT31;68949;53.176;18.088;2023-05-07T07:24:48;12.09;56.96
79489;SHT31;68949;53.176;18.088;2023-05-07T07:27:16;12.09;56.01
79489;SHT31;68949;53.176;18.088;2023-05-07T07:29:42;12.19;57.15
79489;SHT31;68949;53.176;18.088;2023-05-07T07:32:09;12.40;56.53
79489;SHT31;68949;53.176;18.088;2023-05-07T07:34:36;12.38;56.06
79489;SHT31;68949;53.176;18.088;2023-05-07T07:37:02;12.34;56.52
79489;SHT31;68949;53.176;18.088;2023-05-07T07:39:33;12.34;55.76
79489;SHT31;68949;53.176;18.088;2023-05-07T07:42:00;12.35;56.73
79489;SHT31;68949;53.176;18.088;2023-05-07T07:44:28;12.54;55.82
79489;SHT31;68949;53.176;18.088;2023-05-07T07:46:58;12.56;56.35
79489;SHT31;68949;53.176;18.088;2023-05-07T07:49:27;12.70;55.30
79489;SHT31;68949;53.176;18.088;2023-05-07T07:51:55;12.89;55.49
79489;SHT31;68949;53.176;18.088;2023-05-07T07:54:25;12.93;54.97
79489;SHT31;68949;53.176;18.088;2023-05-07T07:56:52;12.91;54.32
79489;SHT31;68949;53.176;18.088;2023-05-07T07:59:20;13.01;55.22
79489;SHT31;68949;53.176;18.088;2023-05-07T08:01:48;13.21;54.62
79489;SHT31;68949;53.176;18.088;2023-05-07T08:04:17;13.12;54.10
79489;SHT31;68949;53.176;18.088;2023-05-07T08:06:44;12.77;53.11
79489;SHT31;68949;53.176;18.088;2023-05-07T08:09:11;12.68;53.74
79489;SHT31;68949;53.176;18.088;2023-05-07T08:11:40;12.69;53.40
79489;SHT31;68949;53.176;18.088;2023-05-07T08:14:07;12.81;54.93
79489;SHT31;68949;53.176;18.088;2023-05-07T08:16:34;13.01;54.30
79489;SHT31;68949;53.176;18.088;2023-05-07T08:19:01;13.24;54.86
79489;SHT31;68949;53.176;18.088;2023-05-07T08:21:28;13.34;53.64
79489;SHT31;68949;53.176;18.088;2023-05-07T08:23:57;13.47;53.47
79489;SHT31;68949;53.176;18.088;2023-05-07T08:26:24;13.55;52.88
79489;SHT31;68949;53.176;18.088;2023-05-07T08:28:52;13.64;52.28
79489;SHT31;68949;53.176;18.088;2023-05-07T08:31:19;13.65;50.94
79489;SHT31;68949;53.176;18.088;2023-05-07T08:33:47;13.65;50.95
79489;SHT31;68949;53.176;18.088;2023-05-07T08:36:13;13.54;50.37
79489;SHT31;68949;53.176;18.088;2023-05-07T08:38:40;13.47;49.57
79489;SHT31;68949;53.176;18.088;2023-05-07T08:41:12;13.39;49.35
79489;SHT31;68949;53.176;18.088;2023-05-07T08:43:40;13.45;50.24
79489;SHT31;68949;53.176;18.088;2023-05-07T08:46:09;13.63;50.62
79489;SHT31;68949;53.176;18.088;2023-05-07T08:48:39;13.85;51.00
79489;SHT31;68949;53.176;18.088;2023-05-07T08:51:15;13.97;48.89
79489;SHT31;68949;53.176;18.088;2023-05-07T08:53:47;13.99;49.50
79489;SHT31;68949;53.176;18.088;2023-05-07T08:56:20;13.90;48.98
79489;SHT31;68949;53.176;18.088;2023-05-07T08:58:47;13.82;48.02
79489;SHT31;68949;53.176;18.088;2023-05-07T09:01:15;13.72;47.81
79489;SHT31;68949;53.176;18.088;2023-05-07T09:03:45;13.68;48.14
79489;SHT31;68949;53.176;18.088;2023-05-07T09:06:13;13.81;48.00
79489;SHT31;68949;53.176;18.088;2023-05-07T09:08:44;13.75;46.94
79489;SHT31;68949;53.176;18.088;2023-05-07T09:11:19;13.64;47.74
79489;SHT31;68949;53.176;18.088;2023-05-07T09:13:53;13.81;48.40
79489;SHT31;68949;53.176;18.088;2023-05-07T09:16:29;13.96;47.43
79489;SHT31;68949;53.176;18.088;2023-05-07T09:18:58;14.07;47.87
79489;SHT31;68949;53.176;18.088;2023-05-07T09:21:29;14.22;48.16
79489;SHT31;68949;53.176;18.088;2023-05-07T09:23:58;14.16;47.45
79489;SHT31;68949;53.176;18.088;2023-05-07T09:26:30;14.10;47.18
79489;SHT31;68949;53.176;18.088;2023-05-07T09:28:59;14.01;46.73
79489;SHT31;68949;53.176;18.088;2023-05-07T09:31:26;14.14;48.18
79489;SHT31;68949;53.176;18.088;2023-05-07T09:33:54;14.35;47.20
79489;SHT31;68949;53.176;18.088;2023-05-07T09:36:23;14.29;46.85
79489;SHT31;68949;53.176;18.088;2023-05-07T09:38:50;14.35;47.52
79489;SHT31;68949;53.176;18.088;2023-05-07T09:41:18;14.52;47.43
79489;SHT31;68949;53.176;18.088;2023-05-07T09:44:05;14.76;47.16
79489;SHT31;68949;53.176;18.088;2023-05-07T09:46:36;14.76;46.63
79489;SHT31;68949;53.176;18.088;2023-05-07T09:49:20;14.91;46.42
79489;SHT31;68949;53.176;18.088;2023-05-07T09:51:51;14.96;46.26
79489;SHT31;68949;53.176;18.088;2023-05-07T09:54:20;15.03;46.35
79489;SHT31;68949;53.176;18.088;2023-05-07T09:56:49;15.07;46.77
79489;SHT31;68949;53.176;18.088;2023-05-07T09:59:18;15.18;46.79
79489;SHT31;68949;53.176;18.088;2023-05-07T10:01:47;15.28;47.13
79489;SHT31;68949;53.176;18.088;2023-05-07T10:04:16;15.27;45.85
79489;SHT31;68949;53.176;18.088;2023-05-07T10:06:44;15.32;45.43
79489;SHT31;68949;53.176;18.088;2023-05-07T10:09:13;15.41;46.20
79489;SHT31;68949;53.176;18.088;2023-05-07T10:11:41;15.54;46.36
79489;SHT31;68949;53.176;18.088;2023-05-07T10:14:11;15.67;46.84
79489;SHT31;68949;53.176;18.088;2023-05-07T10:16:40;15.69;45.40
79489;SHT31;68949;53.176;18.088;2023-05-07T10:19:11;15.63;44.27
79489;SHT31;68949;53.176;18.088;2023-05-07T10:21:48;15.65;44.67
79489;SHT31;68949;53.176;18.088;2023-05-07T10:24:29;15.77;44.73
79489;SHT31;68949;53.176;18.088;2023-05-07T10:27:10;15.74;43.67
79489;SHT31;68949;53.176;18.088;2023-05-07T10:30:01;15.72;45.10
79489;SHT31;68949;53.176;18.088;2023-05-07T10:33:08;15.85;44.45
79489;SHT31;68949;53.176;18.088;2023-05-07T10:35:41;15.91;44.09
79489;SHT31;68949;53.176;18.088;2023-05-07T10:38:12;15.92;43.80
79489;SHT31;68949;53.176;18.088;2023-05-07T10:40:41;15.95;43.46
79489;SHT31;68949;53.176;18.088;2023-05-07T10:43:08;15.98;43.42
79489;SHT31;68949;53.176;18.088;2023-05-07T10:45:39;15.94;43.54
79489;SHT31;68949;53.176;18.088;2023-05-07T10:48:10;15.98;43.77
79489;SHT31;68949;53.176;18.088;2023-05-07T10:50:43;16.05;44.84
79489;SHT31;68949;53.176;18.088;2023-05-07T11:01:50;15.99;41.55
79489;SHT31;68949;53.176;18.088;2023-05-07T11:04:30;15.95;42.83
79489;SHT31;68949;53.176;18.088;2023-05-07T11:07:26;16.03;42.77
79489;SHT31;68949;53.176;18.088;2023-05-07T11:09:59;16.05;41.47
79489;SHT31;68949;53.176;18.088;2023-05-07T11:12:55;15.92;41.51
79489;SHT31;68949;53.176;18.088;2023-05-07T11:15:36;16.06;42.73
79489;SHT31;68949;53.176;18.088;2023-05-07T11:18:16;16.15;41.32
79489;SHT31;68949;53.176;18.088;2023-05-07T11:20:48;16.18;42.49
79489;SHT31;68949;53.176;18.088;2023-05-07T11:26:10;16.28;42.08
79489;SHT31;68949;53.176;18.088;2023-05-07T11:28:39;16.29;40.69
79489;SHT31;68949;53.176;18.088;2023-05-07T11:31:08;16.27;40.91
79489;SHT31;68949;53.176;18.088;2023-05-07T11:33:37;16.31;41.24
79489;SHT31;68949;53.176;18.088;2023-05-07T11:36:05;16.32;41.03
79489;SHT31;68949;53.176;18.088;2023-05-07T11:38:37;16.30;39.77
79489;SHT31;68949;53.176;18.088;2023-05-07T11:41:05;16.21;39.34
79489;SHT31;68949;53.176;18.088;2023-05-07T11:43:33;16.20;39.34
79489;SHT31;68949;53.176;18.088;2023-05-07T11:46:09;16.23;40.24
79489;SHT31;68949;53.176;18.088;2023-05-07T11:48:38;16.27;39.74
79489;SHT31;68949;53.176;18.088;2023-05-07T11:51:06;16.24;39.04
79489;SHT31;68949;53.176;18.088;2023-05-07T11:53:39;16.16;39.47
79489;SHT31;68949;53.176;18.088;2023-05-07T11:56:08;16.28;40.34
79489;SHT31;68949;53.176;18.088;2023-05-07T11:58:37;16.35;40.12
79489;SHT31;68949;53.176;18.088;2023-05-07T12:01:07;16.40;39.31
79489;SHT31;68949;53.176;18.088;2023-05-07T12:03:37;16.44;40.06
79489;SHT31;68949;53.176;18.088;2023-05-07T12:06:11;16.42;39.70
79489;SHT31;68949;53.176;18.088;2023-05-07T12:08:40;16.45;39.83
79489;SHT31;68949;53.176;18.088;2023-05-07T12:11:09;16.57;39.36
79489;SHT31;68949;53.176;18.088;2023-05-07T12:13:44;16.57;39.57
79489;SHT31;68949;53.176;18.088;2023-05-07T12:16:11;16.62;40.43
79489;SHT31;68949;53.176;18.088;2023-05-07T12:18:38;16.36;39.70
79489;SHT31;68949;53.176;18.088;2023-05-07T12:21:06;16.11;40.36
79489;SHT31;68949;53.176;18.088;2023-05-07T12:23:34;16.13;40.71
79489;SHT31;68949;53.176;18.088;2023-05-07T12:26:03;16.41;40.90
79489;SHT31;68949;53.176;18.088;2023-05-07T12:28:31;16.69;40.37
79489;SHT31;68949;53.176;18.088;2023-05-07T12:31:05;16.71;38.86
79489;SHT31;68949;53.176;18.088;2023-05-07T12:33:34;16.55;39.20
79489;SHT31;68949;53.176;18.088;2023-05-07T12:36:05;16.28;39.57
79489;SHT31;68949;53.176;18.088;2023-05-07T12:38:35;15.68;40.06
79489;SHT31;68949;53.176;18.088;2023-05-07T12:41:04;15.36;40.25
79489;SHT31;68949;53.176;18.088;2023-05-07T12:43:33;15.18;40.80
79489;SHT31;68949;53.176;18.088;2023-05-07T12:46:01;15.28;40.63
79489;SHT31;68949;53.176;18.088;2023-05-07T12:48:32;15.48;40.12
79489;SHT31;68949;53.176;18.088;2023-05-07T12:51:02;15.66;39.40
79489;SHT31;68949;53.176;18.088;2023-05-07T12:53:29;15.57;38.83
79489;SHT31;68949;53.176;18.088;2023-05-07T12:55:58;15.46;39.11
79489;SHT31;68949;53.176;18.088;2023-05-07T12:58:30;15.61;40.94
79489;SHT31;68949;53.176;18.088;2023-05-07T13:01:00;15.88;39.88
79489;SHT31;68949;53.176;18.088;2023-05-07T13:03:34;16.09;39.71
79489;SHT31;68949;53.176;18.088;2023-05-07T13:06:09;16.27;39.99
79489;SHT31;68949;53.176;18.088;2023-05-07T13:08:37;16.44;39.83
79489;SHT31;68949;53.176;18.088;2023-05-07T13:11:08;16.56;38.83
79489;SHT31;68949;53.176;18.088;2023-05-07T13:13:37;16.78;39.64
79489;SHT31;68949;53.176;18.088;2023-05-07T13:16:07;16.87;39.17
79489;SHT31;68949;53.176;18.088;2023-05-07T13:18:36;16.78;38.57
79489;SHT31;68949;53.176;18.088;2023-05-07T13:21:05;16.67;38.04
79489;SHT31;68949;53.176;18.088;2023-05-07T13:23:32;16.65;38.17
79489;SHT31;68949;53.176;18.088;2023-05-07T13:26:00;16.40;38.51
79489;SHT31;68949;53.176;18.088;2023-05-07T13:28:26;16.31;38.28
79489;SHT31;68949;53.176;18.088;2023-05-07T13:30:53;16.45;39.21
79489;SHT31;68949;53.176;18.088;2023-05-07T13:33:20;16.56;39.03
79489;SHT31;68949;53.176;18.088;2023-05-07T13:35:47;16.71;38.01
79489;SHT31;68949;53.176;18.088;2023-05-07T13:38:14;16.83;37.60
79489;SHT31;68949;53.176;18.088;2023-05-07T13:40:42;16.77;37.79
79489;SHT31;68949;53.176;18.088;2023-05-07T13:43:08;16.57;38.06
79489;SHT31;68949;53.176;18.088;2023-05-07T13:45:35;16.35;38.79
79489;SHT31;68949;53.176;18.088;2023-05-07T13:48:02;16.29;38.63
79489;SHT31;68949;53.176;18.088;2023-05-07T13:50:29;16.37;38.18
79489;SHT31;68949;53.176;18.088;2023-05-07T13:52:56;16.46;38.67
79489;SHT31;68949;53.176;18.088;2023-05-07T13:55:23;16.61;38.96
79489;SHT31;68949;53.176;18.088;2023-05-07T13:57:57;16.46;38.29
79489;SHT31;68949;53.176;18.088;2023-05-07T14:00:26;16.17;38.60
79489;SHT31;68949;53.176;18.088;2023-05-07T14:02:54;15.88;39.39
79489;SHT31;68949;53.176;18.088;2023-05-07T14:05:22;15.86;38.73
79489;SHT31;68949;53.176;18.088;2023-05-07T14:07:50;15.70;38.73
79489;SHT31;68949;53.176;18.088;2023-05-07T14:10:18;15.54;39.31
79489;SHT31;68949;53.176;18.088;2023-05-07T14:12:46;15.64;39.36
79489;SHT31;68949;53.176;18.088;2023-05-07T14:15:13;15.87;39.41
79489;SHT31;68949;53.176;18.088;2023-05-07T14:17:42;16.11;39.12
79489;SHT31;68949;53.176;18.088;2023-05-07T14:20:10;16.30;39.23
79489;SHT31;68949;53.176;18.088;2023-05-07T14:22:38;16.46;38.59
79489;SHT31;68949;53.176;18.088;2023-05-07T14:25:06;16.43;37.72
79489;SHT31;68949;53.176;18.088;2023-05-07T14:27:34;16.33;37.84
79489;SHT31;68949;53.176;18.088;2023-05-07T14:30:01;16.32;38.21
79489;SHT31;68949;53.176;18.088;2023-05-07T14:32:27;16.39;38.73
79489;SHT31;68949;53.176;18.088;2023-05-07T14:34:54;16.48;38.14
79489;SHT31;68949;53.176;18.088;2023-05-07T14:37:21;16.52;37.12
79489;SHT31;68949;53.176;18.088;2023-05-07T14:39:47;16.61;37.76
79489;SHT31;68949;53.176;18.088;2023-05-07T14:42:14;16.69;37.49
79489;SHT31;68949;53.176;18.088;2023-05-07T14:44:41;16.77;37.08
79489;SHT31;68949;53.176;18.088;2023-05-07T14:47:08;16.77;36.21
79489;SHT31;68949;53.176;18.088;2023-05-07T14:49:35;16.59;35.61
79489;SHT31;68949;53.176;18.088;2023-05-07T14:52:01;16.34;35.74
79489;SHT31;68949;53.176;18.088;2023-05-07T14:54:28;16.17;36.69
79489;SHT31;68949;53.176;18.088;2023-05-07T14:56:55;16.18;36.73
79489;SHT31;68949;53.176;18.088;2023-05-07T14:59:22;16.31;37.73
79489;SHT31;68949;53.176;18.088;2023-05-07T15:01:51;16.45;37.78
79489;SHT31;68949;53.176;18.088;2023-05-07T15:04:18;16.52;37.74
79489;SHT31;68949;53.176;18.088;2023-05-07T15:06:45;16.59;37.47
79489;SHT31;68949;53.176;18.088;2023-05-07T15:09:12;16.68;38.53
79489;SHT31;68949;53.176;18.088;2023-05-07T15:11:40;16.82;37.89
79489;SHT31;68949;53.176;18.088;2023-05-07T15:14:06;16.82;36.84
79489;SHT31;68949;53.176;18.088;2023-05-07T15:16:33;16.74;36.97
79489;SHT31;68949;53.176;18.088;2023-05-07T15:19:00;16.67;37.28
79489;SHT31;68949;53.176;18.088;2023-05-07T15:21:27;16.70;36.47
79489;SHT31;68949;53.176;18.088;2023-05-07T15:23:54;16.73;36.74
79489;SHT31;68949;53.176;18.088;2023-05-07T15:26:21;16.75;36.06
79489;SHT31;68949;53.176;18.088;2023-05-07T15:28:48;16.68;36.42
79489;SHT31;68949;53.176;18.088;2023-05-07T15:31:15;16.70;36.42
79489;SHT31;68949;53.176;18.088;2023-05-07T15:33:42;16.71;35.84
79489;SHT31;68949;53.176;18.088;2023-05-07T15:36:09;16.72;36.05
79489;SHT31;68949;53.176;18.088;2023-05-07T15:38:36;16.72;36.46
79489;SHT31;68949;53.176;18.088;2023-05-07T15:41:02;16.74;36.46